SouthEast Lincoln: Weather Underground Data


Davis Vantage Pro Historical Data
 
Daily Summary for July 24, 2017 Units:  English    Metric   Both
« Previous Day
Next Day »
Daily Weekly Monthly Yearly Custom
  Current: High: Low: Average:
Temperature: 67.6 °F 72.0 °F 65.2 °F 68.2 °F
Dew Point: 62.3 °F 63.9 °F 61.0 °F 62 °F
Humidity: 83% 87% 72% 81%
Wind Speed: 3.0mph 5.0mph 0.0mph 2mph
Wind Gust: 4.0mph 6.0mph - -
Wind:East - - ENE
Pressure: 29.98 in 29.98 in 29.94 in -
Precipitation: 0.00 in      
Historical Graphs
 
 
Tabular Data for July 24, 2017
Time Temperature Dew Point Pressure Wind Wind Speed Wind Gust Humidity Rainfall Rate (Hourly) solar
00:02 71.9 °F 63.9 °F 29.95 in Calm     76% 0.00 in 0.00 W/m2
00:07 71.5 °F 63.5 °F 29.95 in ENE 1.0 mph 1.0 mph 76% 0.00 in 0.00 W/m2
00:12 71.3 °F 63.7 °F 29.95 in NE 1.0 mph 1.0 mph 77% 0.00 in 0.00 W/m2
00:17 71.2 °F 63.3 °F 29.96 in NE 2.0 mph 2.0 mph 76% 0.00 in 0.00 W/m2
00:22 71.4 °F 63.5 °F 29.96 in NE 1.0 mph 1.0 mph 76% 0.00 in 0.00 W/m2
00:27 71.5 °F 63.2 °F 29.96 in NE 2.0 mph 2.0 mph 75% 0.00 in 0.00 W/m2
00:32 71.6 °F 63.3 °F 29.96 in NE 1.0 mph 2.0 mph 75% 0.00 in 0.00 W/m2
00:37 71.7 °F 63.0 °F 29.95 in NE 2.0 mph 2.0 mph 74% 0.00 in 0.00 W/m2
00:42 71.9 °F 62.8 °F 29.95 in ENE 2.0 mph 2.0 mph 73% 0.00 in 0.00 W/m2
00:47 72.0 °F 62.9 °F 29.95 in ENE 1.0 mph 1.0 mph 73% 0.00 in 0.00 W/m2
00:52 72.0 °F 62.9 °F 29.95 in NE 2.0 mph 2.0 mph 73% 0.00 in 0.00 W/m2
00:57 72.0 °F 62.5 °F 29.95 in NE 3.0 mph 3.0 mph 72% 0.00 in 0.00 W/m2
00:58 72.0 °F 62.5 °F 29.95 in NE 2.0 mph 3.0 mph 72% 0.00 in 0.00 W/m2
01:03 72.0 °F 62.5 °F 29.95 in NE 2.0 mph 2.0 mph 72% 0.00 in 0.00 W/m2
01:08 71.9 °F 62.4 °F 29.95 in East 1.0 mph 1.0 mph 72% 0.00 in 0.00 W/m2
01:13 71.8 °F 62.7 °F 29.95 in East 2.0 mph 2.0 mph 73% 0.00 in 0.00 W/m2
01:18 71.6 °F 62.5 °F 29.95 in East 1.0 mph 1.0 mph 73% 0.00 in 0.00 W/m2
01:23 71.5 °F 62.8 °F 29.95 in East 1.0 mph 1.0 mph 74% 0.00 in 0.00 W/m2
01:28 71.3 °F 62.6 °F 29.95 in East 1.0 mph 2.0 mph 74% 0.00 in 0.00 W/m2
01:33 71.1 °F 62.8 °F 29.94 in East 1.0 mph 1.0 mph 75% 0.00 in 0.00 W/m2
01:38 70.9 °F 62.6 °F 29.95 in Calm     75% 0.00 in 0.00 W/m2
01:43 70.7 °F 62.4 °F 29.95 in Calm     75% 0.00 in 0.00 W/m2
01:48 70.5 °F 62.2 °F 29.95 in Calm     75% 0.00 in 0.00 W/m2
01:53 70.3 °F 62.4 °F 29.95 in East 1.0 mph 1.0 mph 76% 0.00 in 0.00 W/m2
01:58 70.0 °F 62.5 °F 29.95 in Calm     77% 0.00 in 0.00 W/m2
02:03 69.8 °F 62.3 °F 29.95 in ENE 2.0 mph 2.0 mph 77% 0.00 in 0.00 W/m2
02:08 69.7 °F 62.2 °F 29.95 in ENE 2.0 mph 2.0 mph 77% 0.00 in 0.00 W/m2
02:13 69.7 °F 62.2 °F 29.95 in ENE 4.0 mph 4.0 mph 77% 0.00 in 0.00 W/m2
02:18 69.7 °F 62.2 °F 29.95 in ENE 2.0 mph 2.0 mph 77% 0.00 in 0.00 W/m2
02:23 69.6 °F 62.1 °F 29.95 in ENE 2.0 mph 2.0 mph 77% 0.00 in 0.00 W/m2
02:28 69.5 °F 62.3 °F 29.95 in NE 2.0 mph 4.0 mph 78% 0.00 in 0.00 W/m2
02:33 69.4 °F 62.2 °F 29.95 in ENE 4.0 mph 4.0 mph 78% 0.00 in 0.00 W/m2
02:38 69.4 °F 62.2 °F 29.95 in ENE 4.0 mph 4.0 mph 78% 0.00 in 0.00 W/m2
02:43 69.2 °F 62.1 °F 29.95 in ENE 3.0 mph 5.0 mph 78% 0.00 in 0.00 W/m2
02:48 69.1 °F 62.0 °F 29.95 in ENE 2.0 mph 2.0 mph 78% 0.00 in 0.00 W/m2
02:53 68.9 °F 62.1 °F 29.95 in ENE 3.0 mph 4.0 mph 79% 0.00 in 0.00 W/m2
02:58 68.8 °F 62.4 °F 29.95 in ENE 3.0 mph 3.0 mph 80% 0.00 in 0.00 W/m2
03:03 68.6 °F 62.2 °F 29.95 in ENE 4.0 mph 4.0 mph 80% 0.00 in 0.00 W/m2
03:08 68.4 °F 62.0 °F 29.95 in ENE 3.0 mph 3.0 mph 80% 0.00 in 0.00 W/m2
03:13 68.3 °F 62.2 °F 29.95 in Calm   1.0 mph 81% 0.00 in 0.00 W/m2
03:18 68.2 °F 62.2 °F 29.95 in ENE 3.0 mph 3.0 mph 81% 0.00 in 0.00 W/m2
03:23 68.0 °F 62.0 °F 29.95 in East 3.0 mph 3.0 mph 81% 0.00 in 0.00 W/m2
03:28 67.9 °F 61.9 °F 29.95 in ENE 3.0 mph 3.0 mph 81% 0.00 in 0.00 W/m2
03:33 67.7 °F 62.0 °F 29.95 in NE 2.0 mph 4.0 mph 82% 0.00 in 0.00 W/m2
03:38 67.7 °F 62.0 °F 29.95 in ENE 1.0 mph 1.0 mph 82% 0.00 in 0.00 W/m2
03:43 67.5 °F 61.8 °F 29.95 in ENE 2.0 mph 4.0 mph 82% 0.00 in 0.00 W/m2
03:48 67.4 °F 61.7 °F 29.95 in East 2.0 mph 2.0 mph 82% 0.00 in 0.00 W/m2
03:53 67.3 °F 61.6 °F 29.95 in ENE 3.0 mph 3.0 mph 82% 0.00 in 0.00 W/m2
03:58 67.3 °F 61.6 °F 29.95 in ENE 3.0 mph 5.0 mph 82% 0.00 in 0.00 W/m2
04:03 67.2 °F 61.9 °F 29.95 in ENE 3.0 mph 4.0 mph 83% 0.00 in 0.00 W/m2
04:08 67.1 °F 61.8 °F 29.95 in East 1.0 mph 2.0 mph 83% 0.00 in 0.00 W/m2
04:09 67.1 °F 61.8 °F 29.95 in East 3.0 mph 4.0 mph 83% 0.00 in 0.00 W/m2
04:14 67.1 °F 61.8 °F 29.95 in NE 3.0 mph 4.0 mph 83% 0.00 in 0.00 W/m2
04:19 67.0 °F 61.7 °F 29.95 in ENE 3.0 mph 3.0 mph 83% 0.00 in 0.00 W/m2
04:24 66.9 °F 61.6 °F 29.95 in NE 2.0 mph 5.0 mph 83% 0.00 in 0.00 W/m2
04:29 66.8 °F 61.8 °F 29.95 in ESE 2.0 mph 3.0 mph 84% 0.00 in 0.00 W/m2
04:34 66.7 °F 61.7 °F 29.95 in ENE 2.0 mph 3.0 mph 84% 0.00 in 0.00 W/m2
04:39 66.7 °F 61.7 °F 29.95 in ENE 2.0 mph 4.0 mph 84% 0.00 in 0.00 W/m2
04:44 66.6 °F 61.6 °F 29.95 in East 2.0 mph 5.0 mph 84% 0.00 in 0.00 W/m2
04:49 66.5 °F 61.5 °F 29.95 in East 1.0 mph 3.0 mph 84% 0.00 in 0.00 W/m2
04:54 66.4 °F 61.4 °F 29.95 in ENE 1.0 mph 2.0 mph 84% 0.00 in 0.00 W/m2
04:59 66.3 °F 61.3 °F 29.95 in ENE 3.0 mph 3.0 mph 84% 0.00 in 0.00 W/m2
05:04 66.3 °F 61.7 °F 29.95 in East 1.0 mph 5.0 mph 85% 0.00 in 0.00 W/m2
05:09 66.2 °F 61.6 °F 29.95 in East 5.0 mph 5.0 mph 85% 0.00 in 0.00 W/m2
05:14 66.2 °F 61.6 °F 29.95 in ESE 5.0 mph 5.0 mph 85% 0.00 in 0.00 W/m2
05:19 66.2 °F 61.6 °F 29.95 in ENE 1.0 mph 3.0 mph 85% 0.00 in 0.00 W/m2
05:24 66.2 °F 61.6 °F 29.96 in ENE 2.0 mph 6.0 mph 85% 0.00 in 0.00 W/m2
05:29 66.1 °F 61.5 °F 29.96 in East 2.0 mph 5.0 mph 85% 0.00 in 0.00 W/m2
05:34 66.1 °F 61.5 °F 29.96 in East 2.0 mph 4.0 mph 85% 0.00 in 0.00 W/m2
05:39 66.0 °F 61.4 °F 29.96 in NE 4.0 mph 5.0 mph 85% 0.00 in 0.00 W/m2
05:44 66.0 °F 61.4 °F 29.96 in ENE 1.0 mph 3.0 mph 85% 0.00 in 0.00 W/m2
05:49 65.9 °F 61.3 °F 29.96 in ENE 4.0 mph 4.0 mph 85% 0.00 in 0.00 W/m2
05:54 65.8 °F 61.2 °F 29.96 in ENE 5.0 mph 5.0 mph 85% 0.00 in 0.00 W/m2
05:59 65.8 °F 61.2 °F 29.97 in ENE 1.0 mph 3.0 mph 85% 0.00 in 0.00 W/m2
06:04 65.7 °F 61.1 °F 29.97 in East 2.0 mph 3.0 mph 85% 0.00 in 0.00 W/m2
06:09 65.6 °F 61.3 °F 29.97 in Calm   3.0 mph 86% 0.00 in 0.00 W/m2
06:14 65.5 °F 61.2 °F 29.97 in ENE 2.0 mph 3.0 mph 86% 0.00 in 0.00 W/m2
06:19 65.4 °F 61.1 °F 29.97 in East 2.0 mph 3.0 mph 86% 0.00 in 5.00 W/m2
06:24 65.4 °F 61.1 °F 29.97 in Calm   1.0 mph 86% 0.00 in 9.00 W/m2
06:29 65.3 °F 61.0 °F 29.97 in East 2.0 mph 3.0 mph 86% 0.00 in 11.00 W/m2
06:34 65.3 °F 61.0 °F 29.97 in ENE 1.0 mph 2.0 mph 86% 0.00 in 14.00 W/m2
06:39 65.2 °F 61.2 °F 29.97 in East 2.0 mph 4.0 mph 87% 0.00 in 16.00 W/m2
06:44 65.2 °F 61.2 °F 29.98 in East 3.0 mph 4.0 mph 87% 0.00 in 19.00 W/m2
06:49 65.2 °F 61.2 °F 29.98 in East 1.0 mph 1.0 mph 87% 0.00 in 28.00 W/m2
06:54 65.3 °F 61.3 °F 29.98 in East 2.0 mph 2.0 mph 87% 0.00 in 35.00 W/m2
06:59 65.5 °F 61.2 °F 29.98 in Calm   2.0 mph 86% 0.00 in 44.00 W/m2
07:04 65.7 °F 61.4 °F 29.98 in East 2.0 mph 2.0 mph 86% 0.00 in 49.00 W/m2
07:09 65.9 °F 61.6 °F 29.98 in ESE 2.0 mph 4.0 mph 86% 0.00 in 58.00 W/m2
07:14 66.1 °F 61.8 °F 29.98 in East 1.0 mph 2.0 mph 86% 0.00 in 65.00 W/m2
07:19 66.4 °F 61.8 °F 29.98 in East 1.0 mph 2.0 mph 85% 0.00 in 77.00 W/m2
07:24 66.6 °F 61.6 °F 29.98 in SE 1.0 mph 2.0 mph 84% 0.00 in 91.00 W/m2
07:29 66.9 °F 61.9 °F 29.98 in SE 2.0 mph 5.0 mph 84% 0.00 in 104.00 W/m2
07:34 67.1 °F 61.8 °F 29.98 in East 4.0 mph 5.0 mph 83% 0.00 in 118.00 W/m2
07:39 67.4 °F 62.1 °F 29.98 in ENE 3.0 mph 5.0 mph 83% 0.00 in 134.00 W/m2
07:44 67.6 °F 62.3 °F 29.98 in East 3.0 mph 4.0 mph 83% 0.00 in 139.00 W/m2
SouthEast Lincoln Weather
Compliments of Weather Underground - 2 mb